sensor_id;sensor_type;location;lat;lon;timestamp;temperature;humidity
12887;DHT22;6511;49.746;6.094;2023-03-01T00:01:47;-2.10;99.90
12887;DHT22;6511;49.746;6.094;2023-03-01T00:04:12;-2.10;99.90
12887;DHT22;6511;49.746;6.094;2023-03-01T00:06:38;-2.00;99.90
12887;DHT22;6511;49.746;6.094;2023-03-01T00:09:04;-2.10;99.90
12887;DHT22;6511;49.746;6.094;2023-03-01T00:11:31;-2.00;99.90
12887;DHT22;6511;49.746;6.094;2023-03-01T00:13:59;-2.00;99.90
12887;DHT22;6511;49.746;6.094;2023-03-01T00:16:31;-2.00;99.90
12887;DHT22;6511;49.746;6.094;2023-03-01T00:18:59;-2.10;99.90
12887;DHT22;6511;49.746;6.094;2023-03-01T00:21:25;-2.10;99.90
12887;DHT22;6511;49.746;6.094;2023-03-01T00:23:51;-2.20;99.90
12887;DHT22;6511;49.746;6.094;2023-03-01T00:26:18;-2.10;99.90
12887;DHT22;6511;49.746;6.094;2023-03-01T00:28:44;-2.10;99.90
12887;DHT22;6511;49.746;6.094;2023-03-01T00:31:13;-2.20;99.90
12887;DHT22;6511;49.746;6.094;2023-03-01T00:33:40;-2.30;99.90
12887;DHT22;6511;49.746;6.094;2023-03-01T00:36:07;-2.40;99.90
12887;DHT22;6511;49.746;6.094;2023-03-01T00:38:37;-2.40;99.90
12887;DHT22;6511;49.746;6.094;2023-03-01T00:41:09;-2.40;99.90
12887;DHT22;6511;49.746;6.094;2023-03-01T00:43:35;-2.20;99.90
12887;DHT22;6511;49.746;6.094;2023-03-01T00:46:07;-2.20;99.90
12887;DHT22;6511;49.746;6.094;2023-03-01T00:48:33;-2.20;99.90
12887;DHT22;6511;49.746;6.094;2023-03-01T00:53:33;-2.50;99.90
12887;DHT22;6511;49.746;6.094;2023-03-01T00:55:59;-2.50;99.90
12887;DHT22;6511;49.746;6.094;2023-03-01T00:58:24;-2.50;99.90
12887;DHT22;6511;49.746;6.094;2023-03-01T01:00:50;-2.60;99.90
12887;DHT22;6511;49.746;6.094;2023-03-01T01:03:17;-2.50;99.90
12887;DHT22;6511;49.746;6.094;2023-03-01T01:05:43;-2.50;99.90
12887;DHT22;6511;49.746;6.094;2023-03-01T01:08:09;-2.50;99.90
12887;DHT22;6511;49.746;6.094;2023-03-01T01:10:34;-2.50;99.90
12887;DHT22;6511;49.746;6.094;2023-03-01T01:13:00;-2.60;99.90
12887;DHT22;6511;49.746;6.094;2023-03-01T01:15:26;-2.40;99.90
12887;DHT22;6511;49.746;6.094;2023-03-01T01:17:52;-2.30;99.90
12887;DHT22;6511;49.746;6.094;2023-03-01T01:20:18;-2.30;99.90
12887;DHT22;6511;49.746;6.094;2023-03-01T01:22:43;-2.40;99.90
12887;DHT22;6511;49.746;6.094;2023-03-01T01:25:09;-2.40;99.90
12887;DHT22;6511;49.746;6.094;2023-03-01T01:27:34;-2.40;99.90
12887;DHT22;6511;49.746;6.094;2023-03-01T01:30:00;-2.40;99.90
12887;DHT22;6511;49.746;6.094;2023-03-01T01:32:26;-2.40;99.90
12887;DHT22;6511;49.746;6.094;2023-03-01T01:34:51;-2.50;99.90
12887;DHT22;6511;49.746;6.094;2023-03-01T01:37:17;-2.50;99.90
12887;DHT22;6511;49.746;6.094;2023-03-01T01:39:42;-2.40;99.90
12887;DHT22;6511;49.746;6.094;2023-03-01T01:42:16;-2.30;99.90
12887;DHT22;6511;49.746;6.094;2023-03-01T01:44:45;-2.30;99.90
12887;DHT22;6511;49.746;6.094;2023-03-01T01:47:16;-2.20;99.90
12887;DHT22;6511;49.746;6.094;2023-03-01T01:49:56;-2.30;99.90
12887;DHT22;6511;49.746;6.094;2023-03-01T01:52:40;-2.30;99.90
12887;DHT22;6511;49.746;6.094;2023-03-01T01:55:14;-2.20;99.90
12887;DHT22;6511;49.746;6.094;2023-03-01T01:57:45;-2.30;99.90
12887;DHT22;6511;49.746;6.094;2023-03-01T02:00:16;-2.30;99.90
12887;DHT22;6511;49.746;6.094;2023-03-01T02:02:43;-2.40;99.90
12887;DHT22;6511;49.746;6.094;2023-03-01T02:05:16;-2.50;99.90
12887;DHT22;6511;49.746;6.094;2023-03-01T02:07:44;-2.40;99.90
12887;DHT22;6511;49.746;6.094;2023-03-01T02:10:10;-2.40;99.90
12887;DHT22;6511;49.746;6.094;2023-03-01T02:12:37;-2.40;99.90
12887;DHT22;6511;49.746;6.094;2023-03-01T02:15:04;-2.40;99.90
12887;DHT22;6511;49.746;6.094;2023-03-01T02:17:30;-2.60;99.90
12887;DHT22;6511;49.746;6.094;2023-03-01T02:20:12;-2.50;99.90
12887;DHT22;6511;49.746;6.094;2023-03-01T02:22:43;-2.50;99.90
12887;DHT22;6511;49.746;6.094;2023-03-01T02:30:25;-2.90;99.90
12887;DHT22;6511;49.746;6.094;2023-03-01T02:32:52;-3.00;99.90
12887;DHT22;6511;49.746;6.094;2023-03-01T02:35:20;-3.10;99.90
12887;DHT22;6511;49.746;6.094;2023-03-01T02:37:46;-3.20;99.90
12887;DHT22;6511;49.746;6.094;2023-03-01T02:40:17;-3.20;99.90
12887;DHT22;6511;49.746;6.094;2023-03-01T02:42:56;-3.20;99.90
12887;DHT22;6511;49.746;6.094;2023-03-01T02:45:23;-3.30;99.90
12887;DHT22;6511;49.746;6.094;2023-03-01T02:47:49;-3.30;99.90
12887;DHT22;6511;49.746;6.094;2023-03-01T02:53:12;-3.30;99.90
12887;DHT22;6511;49.746;6.094;2023-03-01T02:55:38;-3.30;99.90
12887;DHT22;6511;49.746;6.094;2023-03-01T02:58:04;-3.10;99.90
12887;DHT22;6511;49.746;6.094;2023-03-01T03:00:36;-3.00;99.90
12887;DHT22;6511;49.746;6.094;2023-03-01T03:03:06;-2.60;99.90
12887;DHT22;6511;49.746;6.094;2023-03-01T03:05:32;-2.60;99.90
12887;DHT22;6511;49.746;6.094;2023-03-01T03:07:59;-2.60;99.90
12887;DHT22;6511;49.746;6.094;2023-03-01T03:10:28;-2.70;99.90
12887;DHT22;6511;49.746;6.094;2023-03-01T03:13:03;-2.70;99.90
12887;DHT22;6511;49.746;6.094;2023-03-01T03:15:29;-2.80;99.90
12887;DHT22;6511;49.746;6.094;2023-03-01T03:17:56;-2.80;99.90
12887;DHT22;6511;49.746;6.094;2023-03-01T03:20:24;-2.90;99.90
12887;DHT22;6511;49.746;6.094;2023-03-01T03:22:52;-2.90;99.90
12887;DHT22;6511;49.746;6.094;2023-03-01T03:25:19;-2.90;99.90
12887;DHT22;6511;49.746;6.094;2023-03-01T03:27:47;-2.80;99.90
12887;DHT22;6511;49.746;6.094;2023-03-01T03:30:16;-2.80;99.90
12887;DHT22;6511;49.746;6.094;2023-03-01T03:32:43;-2.70;99.90
12887;DHT22;6511;49.746;6.094;2023-03-01T03:35:26;-2.70;99.90
12887;DHT22;6511;49.746;6.094;2023-03-01T03:37:53;-2.80;99.90
12887;DHT22;6511;49.746;6.094;2023-03-01T03:40:39;-2.90;99.90
12887;DHT22;6511;49.746;6.094;2023-03-01T03:43:08;-2.80;99.90
12887;DHT22;6511;49.746;6.094;2023-03-01T03:45:35;-2.80;99.90
12887;DHT22;6511;49.746;6.094;2023-03-01T03:48:02;-2.80;99.90
12887;DHT22;6511;49.746;6.094;2023-03-01T03:50:28;-2.70;99.90
12887;DHT22;6511;49.746;6.094;2023-03-01T03:52:54;-2.60;99.90
12887;DHT22;6511;49.746;6.094;2023-03-01T03:55:20;-2.60;99.90
12887;DHT22;6511;49.746;6.094;2023-03-01T03:57:47;-2.50;99.90
12887;DHT22;6511;49.746;6.094;2023-03-01T04:00:19;-2.70;99.90
12887;DHT22;6511;49.746;6.094;2023-03-01T04:02:46;-2.80;99.90
12887;DHT22;6511;49.746;6.094;2023-03-01T04:05:14;-2.70;99.90
12887;DHT22;6511;49.746;6.094;2023-03-01T04:07:41;-2.70;99.90
12887;DHT22;6511;49.746;6.094;2023-03-01T04:10:10;-2.70;99.90
12887;DHT22;6511;49.746;6.094;2023-03-01T04:12:36;-2.70;99.90
12887;DHT22;6511;49.746;6.094;2023-03-01T04:15:03;-2.70;99.90
12887;DHT22;6511;49.746;6.094;2023-03-01T04:17:41;-2.70;99.90
12887;DHT22;6511;49.746;6.094;2023-03-01T04:20:09;-2.60;99.90
12887;DHT22;6511;49.746;6.094;2023-03-01T04:22:37;-2.60;99.90
12887;DHT22;6511;49.746;6.094;2023-03-01T04:25:03;-2.60;99.90
12887;DHT22;6511;49.746;6.094;2023-03-01T04:27:30;-2.50;99.90
12887;DHT22;6511;49.746;6.094;2023-03-01T04:29:55;-2.40;99.90
12887;DHT22;6511;49.746;6.094;2023-03-01T04:32:21;-2.40;99.90
12887;DHT22;6511;49.746;6.094;2023-03-01T04:34:47;-2.70;99.90
12887;DHT22;6511;49.746;6.094;2023-03-01T04:37:12;-2.70;99.90
12887;DHT22;6511;49.746;6.094;2023-03-01T04:39:38;-2.80;99.90
12887;DHT22;6511;49.746;6.094;2023-03-01T04:42:16;-2.90;99.90
12887;DHT22;6511;49.746;6.094;2023-03-01T04:44:43;-3.00;99.90
12887;DHT22;6511;49.746;6.094;2023-03-01T04:47:08;-3.10;99.90
12887;DHT22;6511;49.746;6.094;2023-03-01T04:49:34;-3.10;99.90
12887;DHT22;6511;49.746;6.094;2023-03-01T04:52:00;-3.00;99.90
12887;DHT22;6511;49.746;6.094;2023-03-01T04:54:28;-3.00;99.90
12887;DHT22;6511;49.746;6.094;2023-03-01T04:56:54;-2.90;99.90
12887;DHT22;6511;49.746;6.094;2023-03-01T04:59:20;-2.80;99.90
12887;DHT22;6511;49.746;6.094;2023-03-01T05:01:48;-2.70;99.90
12887;DHT22;6511;49.746;6.094;2023-03-01T05:04:14;-2.70;99.90
12887;DHT22;6511;49.746;6.094;2023-03-01T05:06:40;-2.70;99.90
12887;DHT22;6511;49.746;6.094;2023-03-01T05:09:06;-2.70;99.90
12887;DHT22;6511;49.746;6.094;2023-03-01T05:11:32;-2.70;99.90
12887;DHT22;6511;49.746;6.094;2023-03-01T05:14:02;-2.70;99.90
12887;DHT22;6511;49.746;6.094;2023-03-01T05:16:28;-2.70;99.90
12887;DHT22;6511;49.746;6.094;2023-03-01T05:18:53;-2.70;99.90
12887;DHT22;6511;49.746;6.094;2023-03-01T05:21:21;-2.70;99.90
12887;DHT22;6511;49.746;6.094;2023-03-01T05:23:47;-2.70;99.90
12887;DHT22;6511;49.746;6.094;2023-03-01T05:26:12;-2.70;99.90
12887;DHT22;6511;49.746;6.094;2023-03-01T05:28:38;-2.80;99.90
12887;DHT22;6511;49.746;6.094;2023-03-01T05:31:05;-2.80;99.90
12887;DHT22;6511;49.746;6.094;2023-03-01T05:33:36;-2.70;99.90
12887;DHT22;6511;49.746;6.094;2023-03-01T05:36:02;-2.70;99.90
12887;DHT22;6511;49.746;6.094;2023-03-01T05:38:28;-2.70;99.90
12887;DHT22;6511;49.746;6.094;2023-03-01T05:40:53;-2.80;99.90
12887;DHT22;6511;49.746;6.094;2023-03-01T05:43:19;-2.80;99.90
12887;DHT22;6511;49.746;6.094;2023-03-01T05:45:45;-2.80;99.90
12887;DHT22;6511;49.746;6.094;2023-03-01T05:48:12;-2.70;99.90
12887;DHT22;6511;49.746;6.094;2023-03-01T05:50:47;-2.70;99.90
12887;DHT22;6511;49.746;6.094;2023-03-01T05:53:14;-2.60;99.90
12887;DHT22;6511;49.746;6.094;2023-03-01T05:55:41;-2.60;99.90
12887;DHT22;6511;49.746;6.094;2023-03-01T05:58:13;-2.60;99.90
12887;DHT22;6511;49.746;6.094;2023-03-01T06:00:43;-2.70;99.90
12887;DHT22;6511;49.746;6.094;2023-03-01T06:03:10;-2.70;99.90
12887;DHT22;6511;49.746;6.094;2023-03-01T06:05:36;-2.70;99.90
12887;DHT22;6511;49.746;6.094;2023-03-01T06:08:02;-2.60;99.90
12887;DHT22;6511;49.746;6.094;2023-03-01T06:10:30;-2.60;99.90
12887;DHT22;6511;49.746;6.094;2023-03-01T06:12:56;-2.60;99.90
12887;DHT22;6511;49.746;6.094;2023-03-01T06:15:22;-2.60;99.90
12887;DHT22;6511;49.746;6.094;2023-03-01T06:17:48;-2.70;99.90
12887;DHT22;6511;49.746;6.094;2023-03-01T06:20:20;-2.70;99.90
12887;DHT22;6511;49.746;6.094;2023-03-01T06:22:47;-2.70;99.90
12887;DHT22;6511;49.746;6.094;2023-03-01T06:25:16;-2.70;99.90
12887;DHT22;6511;49.746;6.094;2023-03-01T06:27:43;-2.70;99.90
12887;DHT22;6511;49.746;6.094;2023-03-01T06:30:10;-2.70;99.90
12887;DHT22;6511;49.746;6.094;2023-03-01T06:32:37;-2.80;99.90
12887;DHT22;6511;49.746;6.094;2023-03-01T06:35:04;-2.80;99.90
12887;DHT22;6511;49.746;6.094;2023-03-01T06:37:29;-2.80;99.90
12887;DHT22;6511;49.746;6.094;2023-03-01T06:39:55;-2.90;99.90
12887;DHT22;6511;49.746;6.094;2023-03-01T06:42:21;-2.90;99.90
12887;DHT22;6511;49.746;6.094;2023-03-01T06:44:46;-2.90;99.90
12887;DHT22;6511;49.746;6.094;2023-03-01T06:47:12;-3.00;99.90
12887;DHT22;6511;49.746;6.094;2023-03-01T06:49:38;-3.00;99.90
12887;DHT22;6511;49.746;6.094;2023-03-01T06:52:03;-3.00;99.90
12887;DHT22;6511;49.746;6.094;2023-03-01T06:54:29;-3.00;99.90
12887;DHT22;6511;49.746;6.094;2023-03-01T06:56:55;-3.00;99.90
12887;DHT22;6511;49.746;6.094;2023-03-01T06:59:20;-2.90;99.90
12887;DHT22;6511;49.746;6.094;2023-03-01T07:01:46;-2.90;99.90
12887;DHT22;6511;49.746;6.094;2023-03-01T07:04:13;-2.80;99.90
12887;DHT22;6511;49.746;6.094;2023-03-01T07:06:39;-2.80;99.90
12887;DHT22;6511;49.746;6.094;2023-03-01T07:09:05;-2.70;99.90
12887;DHT22;6511;49.746;6.094;2023-03-01T07:11:30;-2.60;99.90
12887;DHT22;6511;49.746;6.094;2023-03-01T07:13:56;-2.60;99.90
12887;DHT22;6511;49.746;6.094;2023-03-01T07:16:22;-2.60;99.90
12887;DHT22;6511;49.746;6.094;2023-03-01T07:18:47;-2.60;99.90
12887;DHT22;6511;49.746;6.094;2023-03-01T07:21:14;-2.50;99.90
12887;DHT22;6511;49.746;6.094;2023-03-01T07:23:41;-2.40;99.90
12887;DHT22;6511;49.746;6.094;2023-03-01T07:26:07;-2.40;99.90
12887;DHT22;6511;49.746;6.094;2023-03-01T07:28:33;-2.40;99.90
12887;DHT22;6511;49.746;6.094;2023-03-01T07:31:05;-2.30;99.90
12887;DHT22;6511;49.746;6.094;2023-03-01T07:33:30;-2.30;99.90
12887;DHT22;6511;49.746;6.094;2023-03-01T07:36:01;-2.30;99.90
12887;DHT22;6511;49.746;6.094;2023-03-01T07:38:27;-2.30;99.90
12887;DHT22;6511;49.746;6.094;2023-03-01T07:40:58;-2.20;99.90
12887;DHT22;6511;49.746;6.094;2023-03-01T07:43:24;-2.20;99.90
12887;DHT22;6511;49.746;6.094;2023-03-01T07:45:49;-2.20;99.90
12887;DHT22;6511;49.746;6.094;2023-03-01T07:48:15;-2.20;99.90
12887;DHT22;6511;49.746;6.094;2023-03-01T07:50:41;-2.10;99.90
12887;DHT22;6511;49.746;6.094;2023-03-01T07:53:06;-2.10;99.90
12887;DHT22;6511;49.746;6.094;2023-03-01T07:55:32;-2.10;99.90
12887;DHT22;6511;49.746;6.094;2023-03-01T07:57:57;-1.90;99.90
12887;DHT22;6511;49.746;6.094;2023-03-01T08:00:23;-1.90;99.90
12887;DHT22;6511;49.746;6.094;2023-03-01T08:02:48;-1.80;99.90
12887;DHT22;6511;49.746;6.094;2023-03-01T08:05:14;-1.80;99.90
12887;DHT22;6511;49.746;6.094;2023-03-01T08:07:40;-1.70;99.90
12887;DHT22;6511;49.746;6.094;2023-03-01T08:10:06;-1.60;99.90
12887;DHT22;6511;49.746;6.094;2023-03-01T08:12:31;-1.60;99.90
12887;DHT22;6511;49.746;6.094;2023-03-01T08:14:57;-1.50;99.90
12887;DHT22;6511;49.746;6.094;2023-03-01T08:17:23;-1.40;99.90
12887;DHT22;6511;49.746;6.094;2023-03-01T08:19:48;-1.30;99.90
12887;DHT22;6511;49.746;6.094;2023-03-01T08:22:15;-1.30;99.90
12887;DHT22;6511;49.746;6.094;2023-03-01T08:24:40;-1.30;99.90
12887;DHT22;6511;49.746;6.094;2023-03-01T08:27:06;-1.20;99.90
12887;DHT22;6511;49.746;6.094;2023-03-01T08:29:32;-1.20;99.90
12887;DHT22;6511;49.746;6.094;2023-03-01T08:31:59;-1.10;99.90
12887;DHT22;6511;49.746;6.094;2023-03-01T08:34:24;-1.10;99.90
12887;DHT22;6511;49.746;6.094;2023-03-01T08:36:50;-1.00;99.90
12887;DHT22;6511;49.746;6.094;2023-03-01T08:39:19;-1.00;99.90
12887;DHT22;6511;49.746;6.094;2023-03-01T08:41:45;-0.90;99.90
12887;DHT22;6511;49.746;6.094;2023-03-01T08:44:13;-0.90;99.90
12887;DHT22;6511;49.746;6.094;2023-03-01T08:46:41;-0.90;99.90
12887;DHT22;6511;49.746;6.094;2023-03-01T08:49:15;-0.80;99.90
12887;DHT22;6511;49.746;6.094;2023-03-01T08:51:41;-0.80;99.90
12887;DHT22;6511;49.746;6.094;2023-03-01T08:54:11;-0.80;99.90
12887;DHT22;6511;49.746;6.094;2023-03-01T08:56:38;-0.80;99.90
12887;DHT22;6511;49.746;6.094;2023-03-01T08:59:03;-0.80;99.90
12887;DHT22;6511;49.746;6.094;2023-03-01T09:01:29;-0.80;99.90
12887;DHT22;6511;49.746;6.094;2023-03-01T09:03:55;-0.70;99.90
12887;DHT22;6511;49.746;6.094;2023-03-01T09:06:21;-0.70;99.90
12887;DHT22;6511;49.746;6.094;2023-03-01T09:08:48;-0.60;99.90
12887;DHT22;6511;49.746;6.094;2023-03-01T09:11:16;-0.60;99.90
12887;DHT22;6511;49.746;6.094;2023-03-01T09:13:43;-0.50;99.90
12887;DHT22;6511;49.746;6.094;2023-03-01T09:16:10;-0.50;99.90
12887;DHT22;6511;49.746;6.094;2023-03-01T09:18:36;-0.40;99.90
12887;DHT22;6511;49.746;6.094;2023-03-01T09:21:03;-0.40;99.90
12887;DHT22;6511;49.746;6.094;2023-03-01T09:23:36;-0.30;99.90
12887;DHT22;6511;49.746;6.094;2023-03-01T09:26:04;-0.30;99.90
12887;DHT22;6511;49.746;6.094;2023-03-01T09:28:29;-0.30;99.90
12887;DHT22;6511;49.746;6.094;2023-03-01T09:30:58;-0.30;99.90
12887;DHT22;6511;49.746;6.094;2023-03-01T09:33:24;-0.30;99.90
12887;DHT22;6511;49.746;6.094;2023-03-01T09:35:56;-0.30;99.90
12887;DHT22;6511;49.746;6.094;2023-03-01T09:38:22;-0.20;99.90
12887;DHT22;6511;49.746;6.094;2023-03-01T09:40:47;-0.20;99.90
12887;DHT22;6511;49.746;6.094;2023-03-01T09:45:45;-0.20;99.90
12887;DHT22;6511;49.746;6.094;2023-03-01T09:48:21;-0.20;99.90
12887;DHT22;6511;49.746;6.094;2023-03-01T09:50:49;-0.10;99.90
12887;DHT22;6511;49.746;6.094;2023-03-01T09:53:24;0.00;99.90
12887;DHT22;6511;49.746;6.094;2023-03-01T09:56:00;0.00;99.90
12887;DHT22;6511;49.746;6.094;2023-03-01T10:04:48;0.20;99.90
12887;DHT22;6511;49.746;6.094;2023-03-01T10:09:51;0.30;99.90
12887;DHT22;6511;49.746;6.094;2023-03-01T10:12:27;0.30;99.90
12887;DHT22;6511;49.746;6.094;2023-03-01T10:15:18;0.40;99.90
12887;DHT22;6511;49.746;6.094;2023-03-01T10:18:04;0.40;99.90
12887;DHT22;6511;49.746;6.094;2023-03-01T10:21:34;0.50;99.90
12887;DHT22;6511;49.746;6.094;2023-03-01T10:23:35;0.70;99.90
12887;DHT22;6511;49.746;6.094;2023-03-01T10:26:25;0.80;99.90
12887;DHT22;6511;49.746;6.094;2023-03-01T10:31:26;1.20;99.90
12887;DHT22;6511;49.746;6.094;2023-03-01T10:33:55;1.40;99.90
12887;DHT22;6511;49.746;6.094;2023-03-01T10:36:23;1.50;99.90
12887;DHT22;6511;49.746;6.094;2023-03-01T10:38:52;1.70;99.90
12887;DHT22;6511;49.746;6.094;2023-03-01T10:41:20;1.90;99.90
12887;DHT22;6511;49.746;6.094;2023-03-01T10:43:52;2.10;99.90
12887;DHT22;6511;49.746;6.094;2023-03-01T10:46:34;2.20;99.90
12887;DHT22;6511;49.746;6.094;2023-03-01T10:49:10;2.40;99.90
12887;DHT22;6511;49.746;6.094;2023-03-01T10:51:39;2.70;99.90
12887;DHT22;6511;49.746;6.094;2023-03-01T10:54:32;2.70;99.90
12887;DHT22;6511;49.746;6.094;2023-03-01T10:57:00;3.00;99.90
12887;DHT22;6511;49.746;6.094;2023-03-01T10:59:37;3.20;99.90
12887;DHT22;6511;49.746;6.094;2023-03-01T11:02:12;3.30;99.90
12887;DHT22;6511;49.746;6.094;2023-03-01T11:04:39;3.10;99.90
12887;DHT22;6511;49.746;6.094;2023-03-01T11:07:05;3.10;99.90
12887;DHT22;6511;49.746;6.094;2023-03-01T11:09:32;3.10;99.90
12887;DHT22;6511;49.746;6.094;2023-03-01T11:12:11;3.30;99.90
12887;DHT22;6511;49.746;6.094;2023-03-01T11:14:53;3.20;99.90
12887;DHT22;6511;49.746;6.094;2023-03-01T11:17:26;3.30;99.90
12887;DHT22;6511;49.746;6.094;2023-03-01T11:22:36;3.20;99.90
12887;DHT22;6511;49.746;6.094;2023-03-01T11:25:02;3.40;99.90
12887;DHT22;6511;49.746;6.094;2023-03-01T11:27:32;3.60;99.90
12887;DHT22;6511;49.746;6.094;2023-03-01T11:30:05;3.70;99.90
12887;DHT22;6511;49.746;6.094;2023-03-01T11:35:32;3.40;99.90
12887;DHT22;6511;49.746;6.094;2023-03-01T11:40:57;3.90;99.90
12887;DHT22;6511;49.746;6.094;2023-03-01T11:46:35;3.80;99.90
12887;DHT22;6511;49.746;6.094;2023-03-01T11:52:07;3.90;99.90
12887;DHT22;6511;49.746;6.094;2023-03-01T12:08:54;4.10;99.90
12887;DHT22;6511;49.746;6.094;2023-03-01T12:14:08;4.10;99.90
12887;DHT22;6511;49.746;6.094;2023-03-01T12:46:52;4.60;99.90
12887;DHT22;6511;49.746;6.094;2023-03-01T12:49:26;4.70;99.90
12887;DHT22;6511;49.746;6.094;2023-03-01T12:52:25;4.80;99.90
12887;DHT22;6511;49.746;6.094;2023-03-01T12:54:55;4.80;99.90
12887;DHT22;6511;49.746;6.094;2023-03-01T12:57:29;4.90;99.90
12887;DHT22;6511;49.746;6.094;2023-03-01T13:00:31;5.00;99.90
12887;DHT22;6511;49.746;6.094;2023-03-01T13:08:44;5.00;99.90
12887;DHT22;6511;49.746;6.094;2023-03-01T13:11:21;5.10;99.90
12887;DHT22;6511;49.746;6.094;2023-03-01T13:13:48;5.20;99.90
12887;DHT22;6511;49.746;6.094;2023-03-01T13:19:17;5.20;99.90
12887;DHT22;6511;49.746;6.094;2023-03-01T13:21:45;5.30;99.90
12887;DHT22;6511;49.746;6.094;2023-03-01T13:24:28;5.30;99.90
12887;DHT22;6511;49.746;6.094;2023-03-01T13:29:44;5.50;99.90
12887;DHT22;6511;49.746;6.094;2023-03-01T13:32:33;5.50;99.90
12887;DHT22;6511;49.746;6.094;2023-03-01T13:37:42;5.60;99.90
12887;DHT22;6511;49.746;6.094;2023-03-01T13:42:47;5.70;99.90
12887;DHT22;6511;49.746;6.094;2023-03-01T13:45:32;5.70;99.90
12887;DHT22;6511;49.746;6.094;2023-03-01T13:48:02;5.80;99.90
12887;DHT22;6511;49.746;6.094;2023-03-01T13:50:35;5.90;99.90
12887;DHT22;6511;49.746;6.094;2023-03-01T13:53:06;5.90;99.90
12887;DHT22;6511;49.746;6.094;2023-03-01T13:55:41;5.80;99.90
12887;DHT22;6511;49.746;6.094;2023-03-01T13:58:25;5.90;99.90
12887;DHT22;6511;49.746;6.094;2023-03-01T14:01:06;5.80;99.90
12887;DHT22;6511;49.746;6.094;2023-03-01T14:03:39;5.90;99.90
12887;DHT22;6511;49.746;6.094;2023-03-01T14:06:17;5.80;99.90
12887;DHT22;6511;49.746;6.094;2023-03-01T14:08:45;5.90;99.90
12887;DHT22;6511;49.746;6.094;2023-03-01T14:11:48;5.90;99.90
12887;DHT22;6511;49.746;6.094;2023-03-01T14:14:41;6.00;99.90
12887;DHT22;6511;49.746;6.094;2023-03-01T14:19:33;5.80;99.90
12887;DHT22;6511;49.746;6.094;2023-03-01T14:24:43;6.00;99.90
12887;DHT22;6511;49.746;6.094;2023-03-01T14:27:13;6.00;99.90
12887;DHT22;6511;49.746;6.094;2023-03-01T14:29:39;6.30;99.90
12887;DHT22;6511;49.746;6.094;2023-03-01T14:34:46;6.30;99.90
12887;DHT22;6511;49.746;6.094;2023-03-01T14:39:50;6.20;99.90
12887;DHT22;6511;49.746;6.094;2023-03-01T14:42:17;6.20;99.90
12887;DHT22;6511;49.746;6.094;2023-03-01T14:44:47;6.30;99.90
12887;DHT22;6511;49.746;6.094;2023-03-01T14:47:19;6.30;99.90
12887;DHT22;6511;49.746;6.094;2023-03-01T14:50:09;6.20;99.90
12887;DHT22;6511;49.746;6.094;2023-03-01T14:52:37;6.20;99.90
12887;DHT22;6511;49.746;6.094;2023-03-01T14:55:09;6.20;99.90
12887;DHT22;6511;49.746;6.094;2023-03-01T14:57:43;6.30;99.90
12887;DHT22;6511;49.746;6.094;2023-03-01T15:00:22;6.30;99.90
12887;DHT22;6511;49.746;6.094;2023-03-01T15:02:50;6.30;99.90
12887;DHT22;6511;49.746;6.094;2023-03-01T15:05:51;6.30;99.90
12887;DHT22;6511;49.746;6.094;2023-03-01T15:08:22;6.30;99.90
12887;DHT22;6511;49.746;6.094;2023-03-01T15:11:37;6.30;99.90
12887;DHT22;6511;49.746;6.094;2023-03-01T15:14:25;6.30;99.90
12887;DHT22;6511;49.746;6.094;2023-03-01T15:16:51;6.30;99.90
12887;DHT22;6511;49.746;6.094;2023-03-01T15:19:18;6.30;99.90
12887;DHT22;6511;49.746;6.094;2023-03-01T15:21:48;6.30;99.90
12887;DHT22;6511;49.746;6.094;2023-03-01T15:24:21;6.40;99.90
12887;DHT22;6511;49.746;6.094;2023-03-01T15:26:58;6.30;99.90
12887;DHT22;6511;49.746;6.094;2023-03-01T15:29:28;6.30;99.90
12887;DHT22;6511;49.746;6.094;2023-03-01T15:32:04;6.40;99.90
12887;DHT22;6511;49.746;6.094;2023-03-01T15:34:35;6.40;99.90
12887;DHT22;6511;49.746;6.094;2023-03-01T15:37:32;6.40;99.90
12887;DHT22;6511;49.746;6.094;2023-03-01T15:39:54;6.40;99.90
12887;DHT22;6511;49.746;6.094;2023-03-01T15:45:30;6.40;99.90
12887;DHT22;6511;49.746;6.094;2023-03-01T15:48:02;6.40;99.90
12887;DHT22;6511;49.746;6.094;2023-03-01T15:50:34;6.40;99.90
12887;DHT22;6511;49.746;6.094;2023-03-01T15:53:04;6.40;99.90
12887;DHT22;6511;49.746;6.094;2023-03-01T15:55:32;6.40;99.90
12887;DHT22;6511;49.746;6.094;2023-03-01T15:58:23;6.40;99.90
12887;DHT22;6511;49.746;6.094;2023-03-01T16:00:50;6.40;99.90
12887;DHT22;6511;49.746;6.094;2023-03-01T16:03:22;6.40;99.90
12887;DHT22;6511;49.746;6.094;2023-03-01T16:05:49;6.40;99.90
12887;DHT22;6511;49.746;6.094;2023-03-01T16:08:17;6.40;99.90
12887;DHT22;6511;49.746;6.094;2023-03-01T16:10:43;6.40;99.90
12887;DHT22;6511;49.746;6.094;2023-03-01T16:13:13;6.40;99.90
12887;DHT22;6511;49.746;6.094;2023-03-01T16:15:39;6.40;99.90
12887;DHT22;6511;49.746;6.094;2023-03-01T16:18:05;6.30;99.90
12887;DHT22;6511;49.746;6.094;2023-03-01T16:20:32;6.30;99.90
12887;DHT22;6511;49.746;6.094;2023-03-01T16:23:02;6.20;99.90
12887;DHT22;6511;49.746;6.094;2023-03-01T16:25:29;6.20;99.90
12887;DHT22;6511;49.746;6.094;2023-03-01T16:27:55;6.20;99.90
12887;DHT22;6511;49.746;6.094;2023-03-01T16:30:22;6.10;99.90
12887;DHT22;6511;49.746;6.094;2023-03-01T16:32:48;6.00;99.90
12887;DHT22;6511;49.746;6.094;2023-03-01T16:35:17;6.00;99.90
12887;DHT22;6511;49.746;6.094;2023-03-01T16:37:44;6.00;99.90
12887;DHT22;6511;49.746;6.094;2023-03-01T16:40:24;6.00;99.90
12887;DHT22;6511;49.746;6.094;2023-03-01T16:42:52;5.90;99.90
12887;DHT22;6511;49.746;6.094;2023-03-01T16:45:18;5.90;99.90
12887;DHT22;6511;49.746;6.094;2023-03-01T16:47:44;5.90;99.90
12887;DHT22;6511;49.746;6.094;2023-03-01T16:50:10;5.80;99.90
12887;DHT22;6511;49.746;6.094;2023-03-01T16:52:36;5.90;99.90
12887;DHT22;6511;49.746;6.094;2023-03-01T16:55:04;5.80;99.90
12887;DHT22;6511;49.746;6.094;2023-03-01T16:57:30;5.70;99.90
12887;DHT22;6511;49.746;6.094;2023-03-01T16:59:56;5.60;99.90
12887;DHT22;6511;49.746;6.094;2023-03-01T17:02:22;5.70;99.90
12887;DHT22;6511;49.746;6.094;2023-03-01T17:04:55;5.50;99.90
12887;DHT22;6511;49.746;6.094;2023-03-01T17:07:21;5.50;99.90
12887;DHT22;6511;49.746;6.094;2023-03-01T17:09:47;5.30;99.90
12887;DHT22;6511;49.746;6.094;2023-03-01T17:12:14;5.20;99.90
12887;DHT22;6511;49.746;6.094;2023-03-01T17:14:41;5.10;99.90
12887;DHT22;6511;49.746;6.094;2023-03-01T17:17:08;5.00;99.90
12887;DHT22;6511;49.746;6.094;2023-03-01T17:19:34;5.00;99.90
12887;DHT22;6511;49.746;6.094;2023-03-01T17:22:02;4.90;99.90
12887;DHT22;6511;49.746;6.094;2023-03-01T17:24:32;4.90;99.90
12887;DHT22;6511;49.746;6.094;2023-03-01T17:26:58;4.80;99.90
12887;DHT22;6511;49.746;6.094;2023-03-01T17:29:23;4.70;99.90
12887;DHT22;6511;49.746;6.094;2023-03-01T17:31:49;4.60;99.90
12887;DHT22;6511;49.746;6.094;2023-03-01T17:34:14;4.60;99.90
12887;DHT22;6511;49.746;6.094;2023-03-01T17:36:40;4.50;99.90
12887;DHT22;6511;49.746;6.094;2023-03-01T17:39:12;4.40;99.90
12887;DHT22;6511;49.746;6.094;2023-03-01T17:41:37;4.30;99.90
12887;DHT22;6511;49.746;6.094;2023-03-01T17:44:03;4.20;99.90
12887;DHT22;6511;49.746;6.094;2023-03-01T17:46:29;4.10;99.90
12887;DHT22;6511;49.746;6.094;2023-03-01T17:48:54;4.10;99.90
12887;DHT22;6511;49.746;6.094;2023-03-01T17:51:20;4.00;99.90
12887;DHT22;6511;49.746;6.094;2023-03-01T17:53:46;3.90;99.90
12887;DHT22;6511;49.746;6.094;2023-03-01T17:56:11;3.90;99.90
12887;DHT22;6511;49.746;6.094;2023-03-01T17:58:37;3.80;99.90
12887;DHT22;6511;49.746;6.094;2023-03-01T18:01:16;3.70;99.90
12887;DHT22;6511;49.746;6.094;2023-03-01T18:03:42;3.70;99.90